Pagrindinis puslapis
METAR-TAF:

METAR-TAF

Oro uostai :

Kuantan, Malaizija

platuma: 03-37N, ilguma: 103-13E, Aukštis: 18 m

Dabartinis oras

Ataskaita buvo paskelbta 1 valandą ir 12 minutes, ne 11:00 UTC
Vėjas 2 kt nuo kintamojo kryptimis
Temperatūra 27°C
Drėgmė 89%
Slėgis 1009 hPa
Matomumas 10 km arba daugiau
Mažai debesys ne aukštis 2400 ft

METAR: WMKD 151100Z VRB02KT 9999 FEW024 27/25 Q1009 NOSIG

Laikas: 20:12 (12:12 UTC)


TAF: trūkstamas

Orai ataskaitas ir orų prognozės (METAR, TAF).

turimą stotys yra geltonos ir raudonos taškus žemėlapyje.

Perkelti pele per norėdami pamatyti stoties vardą.

Tada spustelėkite, norėdami matyti oro stebėjimo ir prognozės.

Norėdami pakeisti žemėlapį: spustelėkite ant žalios mygtukų su juodo kryžiaus žemyn,; žalią mygtuką su brūkšneliu, jei norite nutolinti; arba žalių rodyklių gretimoms žemėlapius.


METAR-TAF: